Time;durP1;ratioP1;P1;durP2;ratioP2;P2;SDS_P1;SDS_P2;PMS_P1;PMS_P2;Temp;Humidity;BMP_temperature;BMP_pressure;BME280_temperature;BME280_humidity;BME280_pressure;Samples;Min_cycle;Max_cycle;Signal;HPM_P1;HPM_P2
2022/02/01 00:00:06;;;;;;;16.77;2.90;;;4.70;99.90;;;;;;5053337;28;20397;-70
2022/02/01 00:02:51;;;;;;;31.17;4.00;;;4.70;99.90;;;;;;5053424;28;20037;-71
2022/02/01 00:37:16;;;;;;;24.67;3.07;;;4.50;99.90;;;;;;5034714;28;20040;-71
2022/02/01 00:39:44;;;;;;;18.33;3.03;;;4.50;99.90;;;;;;5052788;28;20037;-71
2022/02/01 00:42:11;;;;;;;20.97;3.17;;;4.50;99.90;;;;;;5052984;28;20029;-71
2022/02/01 00:44:38;;;;;;;18.87;2.93;;;4.40;99.90;;;;;;5052515;28;20048;-70
2022/02/01 00:47:05;;;;;;;25.93;2.73;;;4.40;99.90;;;;;;5052318;28;20540;-71
2022/02/01 00:49:33;;;;;;;18.03;2.60;;;4.40;99.90;;;;;;5035334;28;20036;-72
2022/02/01 00:52:00;;;;;;;18.40;2.80;;;4.40;99.90;;;;;;5052561;28;20387;-71
2022/02/01 00:54:26;;;;;;;16.60;2.80;;;4.40;99.90;;;;;;5052773;28;20045;-70
2022/02/01 00:56:52;;;;;;;20.27;2.57;;;4.40;99.90;;;;;;5036182;28;20448;-72
2022/02/01 00:59:18;;;;;;;20.90;2.83;;;4.40;99.90;;;;;;5053809;28;20017;-71
2022/02/01 01:01:44;;;;;;;19.67;2.67;;;4.40;99.90;;;;;;5054450;28;20028;-71
2022/02/01 01:04:10;;;;;;;17.57;2.60;;;4.40;99.90;;;;;;5054366;28;20037;-70
2022/02/01 01:06:36;;;;;;;29.43;4.13;;;4.40;99.90;;;;;;5054265;28;20044;-71
2022/02/01 01:09:03;;;;;;;20.30;4.20;;;4.40;99.90;;;;;;5054269;28;20037;-71
2022/02/01 01:11:29;;;;;;;19.03;3.43;;;4.40;99.90;;;;;;5035808;28;20178;-71
2022/02/01 01:43:48;;;;;;;19.37;3.20;;;4.60;99.90;;;;;;5052640;28;20088;-71
2022/02/01 01:54:22;;;;;;;19.50;4.30;;;4.50;99.90;;;;;;5034850;28;20403;-71
2022/02/01 01:56:48;;;;;;;28.70;5.80;;;4.60;99.90;;;;;;5053108;28;20025;-72
2022/02/01 01:59:14;;;;;;;35.07;7.10;;;4.60;99.90;;;;;;5052796;28;20064;-72
2022/02/01 02:01:41;;;;;;;42.00;6.70;;;4.60;99.90;;;;;;5053204;28;20029;-71
2022/02/01 02:04:08;;;;;;;33.27;6.40;;;4.50;99.90;;;;;;5052879;28;20032;-71
2022/02/01 02:06:37;;;;;;;35.47;7.03;;;4.50;99.90;;;;;;5053031;28;20025;-71
2022/02/01 02:09:06;;;;;;;32.00;4.87;;;4.50;99.90;;;;;;5052667;28;20040;-72
2022/02/01 02:14:21;;;;;;;25.60;3.60;;;4.50;99.90;;;;;;5052112;28;20011;-71
2022/02/01 02:16:59;;;;;;;21.13;3.70;;;4.50;99.90;;;;;;5052610;28;20432;-71
2022/02/01 02:19:32;;;;;;;21.33;2.97;;;4.50;99.90;;;;;;5052818;28;20053;-71
2022/02/01 02:22:00;;;;;;;19.70;3.40;;;4.50;99.90;;;;;;5052465;28;20021;-71
2022/02/01 02:24:28;;;;;;;14.53;2.43;;;4.50;99.90;;;;;;5052311;28;20112;-71
2022/02/01 02:26:56;;;;;;;19.97;2.90;;;4.50;99.90;;;;;;5051871;28;20116;-71
2022/02/01 02:29:21;;;;;;;16.17;3.13;;;4.50;99.90;;;;;;5051680;28;20056;-72
2022/02/01 02:31:48;;;;;;;18.40;2.57;;;4.50;99.90;;;;;;5052272;28;20431;-71
2022/02/01 02:34:15;;;;;;;15.57;2.43;;;4.50;99.90;;;;;;5052007;28;20049;-71
2022/02/01 02:36:47;;;;;;;14.03;1.97;;;4.50;99.90;;;;;;5052458;28;20032;-71
2022/02/01 02:41:54;;;;;;;10.30;1.77;;;4.60;99.90;;;;;;5038124;28;20393;-72
2022/02/01 02:47:07;;;;;;;17.73;2.87;;;4.60;99.90;;;;;;5056353;28;20094;-71
2022/02/01 02:49:34;;;;;;;12.67;2.00;;;4.60;99.90;;;;;;5038434;28;20493;-71
2022/02/01 02:52:00;;;;;;;18.50;2.60;;;4.60;99.90;;;;;;5056108;28;20032;-70
2022/02/01 02:54:28;;;;;;;12.53;2.40;;;4.60;99.90;;;;;;5055781;28;20527;-72
2022/02/01 02:57:03;;;;;;;14.57;2.50;;;4.60;99.90;;;;;;5055581;28;20041;-71
2022/02/01 02:59:29;;;;;;;14.53;2.63;;;4.60;99.90;;;;;;5055522;28;20036;-71
2022/02/01 03:01:56;;;;;;;11.87;2.20;;;4.60;99.90;;;;;;5055302;28;20025;-71
2022/02/01 03:04:24;;;;;;;17.37;2.67;;;4.60;99.90;;;;;;5055163;28;20025;-71
2022/02/01 03:06:52;;;;;;;18.67;2.80;;;4.60;99.90;;;;;;5055287;28;20375;-71
2022/02/01 03:09:21;;;;;;;20.83;2.70;;;4.60;99.90;;;;;;5055614;28;20047;-71
2022/02/01 03:11:48;;;;;;;11.60;2.03;;;4.60;99.90;;;;;;5055555;28;20060;-71
2022/02/01 03:19:57;;;;;;;11.67;2.20;;;4.60;99.90;;;;;;5031189;28;20052;-71
2022/02/01 03:22:26;;;;;;;9.20;1.67;;;4.60;99.90;;;;;;5036261;28;20037;-71
2022/02/01 03:24:53;;;;;;;14.93;2.00;;;4.60;99.90;;;;;;5053952;28;20056;-71
2022/02/01 03:27:20;;;;;;;14.40;1.53;;;4.60;99.90;;;;;;5054488;28;20052;-70
2022/02/01 03:29:47;;;;;;;14.53;2.03;;;4.60;99.90;;;;;;5054716;28;20031;-71
2022/02/01 03:32:13;;;;;;;15.37;1.70;;;4.60;99.90;;;;;;5054596;28;20033;-71
2022/02/01 03:34:39;;;;;;;11.43;2.10;;;4.60;99.90;;;;;;5054355;28;20112;-70
2022/02/01 03:37:06;;;;;;;17.90;3.47;;;4.60;99.90;;;;;;5037011;28;20033;-71
2022/02/01 03:39:32;;;;;;;19.87;2.50;;;4.60;99.90;;;;;;5054767;28;20033;-70
2022/02/01 03:41:58;;;;;;;15.20;2.77;;;4.60;99.90;;;;;;5054994;28;20033;-71
2022/02/01 03:44:24;;;;;;;13.43;2.13;;;4.60;99.90;;;;;;5036829;28;20105;-71
2022/02/01 03:47:02;;;;;;;14.00;2.07;;;4.60;99.90;;;;;;5036420;28;20033;-70
2022/02/01 03:49:33;;;;;;;14.93;2.00;;;4.60;99.90;;;;;;5054465;28;20025;-71
2022/02/01 03:52:01;;;;;;;11.53;2.10;;;4.60;99.90;;;;;;5054152;28;20106;-71
2022/02/01 03:54:29;;;;;;;10.67;1.80;;;4.60;99.90;;;;;;5054232;28;20040;-71
2022/02/01 03:56:55;;;;;;;15.87;2.20;;;4.50;99.90;;;;;;5054293;28;20032;-71
2022/02/01 03:59:23;;;;;;;13.07;1.97;;;4.60;99.90;;;;;;5054205;28;20119;-71
2022/02/01 04:01:54;;;;;;;12.57;1.77;;;4.60;99.90;;;;;;5054032;28;20025;-71
2022/02/01 04:04:21;;;;;;;13.20;1.93;;;4.60;99.90;;;;;;5053517;28;20033;-71
2022/02/01 04:06:48;;;;;;;12.07;1.97;;;4.60;99.90;;;;;;5053972;28;20366;-71
2022/02/01 04:09:14;;;;;;;29.13;5.83;;;4.60;99.90;;;;;;5053796;28;20394;-71
2022/02/01 04:11:39;;;;;;;20.10;4.07;;;4.60;99.90;;;;;;5053699;28;20032;-71
2022/02/01 04:14:06;;;;;;;15.57;3.73;;;4.60;99.90;;;;;;5053373;28;20044;-71
2022/02/01 04:16:32;;;;;;;12.60;2.17;;;4.60;99.90;;;;;;5035572;28;20036;-71
2022/02/01 04:19:01;;;;;;;12.27;1.53;;;4.60;99.90;;;;;;5053883;28;20032;-71
2022/02/01 04:21:27;;;;;;;16.17;2.17;;;4.60;99.90;;;;;;5053380;28;20041;-71
2022/02/01 04:23:53;;;;;;;11.83;2.40;;;4.60;99.90;;;;;;5053380;28;20044;-72
2022/02/01 04:26:19;;;;;;;9.40;2.00;;;4.60;99.90;;;;;;5053098;28;20033;-71
2022/02/01 04:28:45;;;;;;;18.10;2.90;;;4.50;99.90;;;;;;5053081;28;20108;-72
2022/02/01 04:31:11;;;;;;;9.00;1.70;;;4.60;99.90;;;;;;5053038;28;20028;-71
2022/02/01 04:33:37;;;;;;;13.67;2.37;;;4.50;99.90;;;;;;5052673;28;20505;-71
2022/02/01 04:36:03;;;;;;;18.57;2.53;;;4.60;99.90;;;;;;5052731;28;20036;-71
2022/02/01 04:38:29;;;;;;;15.47;2.10;;;4.50;99.90;;;;;;5052910;28;20032;-71
2022/02/01 04:40:55;;;;;;;9.87;1.90;;;4.60;99.90;;;;;;5053138;28;20059;-71
2022/02/01 04:43:21;;;;;;;15.70;2.87;;;4.60;99.90;;;;;;5052672;28;20033;-71
2022/02/01 04:45:48;;;;;;;9.37;2.00;;;4.60;99.90;;;;;;5052743;28;20071;-71
2022/02/01 04:48:13;;;;;;;17.13;2.53;;;4.60;99.90;;;;;;5052386;28;20112;-71
2022/02/01 04:50:40;;;;;;;10.47;1.83;;;4.60;99.90;;;;;;5052368;28;20446;-71
2022/02/01 04:53:05;;;;;;;13.57;2.10;;;4.60;99.90;;;;;;5052499;28;20052;-71
2022/02/01 04:56:14;;;;;;;14.90;2.20;;;4.60;99.90;;;;;;5052114;28;20059;-71
2022/02/01 04:58:22;;;;;;;26.30;6.95;;;4.70;99.90;;;;;;5024225;28;20033;-71
2022/02/01 05:00:48;;;;;;;20.17;2.67;;;4.70;99.90;;;;;;5052562;28;20071;-71
2022/02/01 05:03:15;;;;;;;15.27;2.70;;;4.70;99.90;;;;;;5051769;28;20033;-71
2022/02/01 05:05:41;;;;;;;13.53;2.77;;;4.70;99.90;;;;;;5052454;28;20025;-71
2022/02/01 05:08:09;;;;;;;14.47;2.80;;;4.70;99.90;;;;;;5052180;28;20036;-71
2022/02/01 05:10:36;;;;;;;10.87;2.40;;;4.70;99.90;;;;;;5052380;28;20432;-71
2022/02/01 05:15:36;;;;;;;18.70;3.47;;;4.60;99.90;;;;;;5052137;28;20120;-71
2022/02/01 05:18:02;;;;;;;17.87;3.67;;;4.70;99.90;;;;;;5051997;28;20021;-71
2022/02/01 05:23:13;;;;;;;14.73;2.20;;;4.60;99.90;;;;;;5051909;28;20116;-71
2022/02/01 05:25:40;;;;;;;13.23;2.63;;;4.60;99.90;;;;;;5051947;28;20035;-71
2022/02/01 05:28:06;;;;;;;8.30;1.93;;;4.60;99.90;;;;;;5051693;28;20120;-71
2022/02/01 05:30:32;;;;;;;14.23;2.23;;;4.70;99.90;;;;;;5051795;28;20116;-71
2022/02/01 05:32:58;;;;;;;11.33;1.73;;;4.70;99.90;;;;;;5051865;28;20043;-71
2022/02/01 05:35:24;;;;;;;11.27;1.73;;;4.60;99.90;;;;;;5051835;28;20107;-71
2022/02/01 05:37:50;;;;;;;13.17;2.40;;;4.70;99.90;;;;;;5051806;28;20489;-71
2022/02/01 05:40:23;;;;;;;14.17;2.33;;;4.60;99.90;;;;;;5051694;28;20029;-71
2022/02/01 05:43:02;;;;;;;16.03;2.70;;;4.60;99.90;;;;;;5051800;28;20091;-71
2022/02/01 05:45:28;;;;;;;16.17;2.25;;;4.70;99.90;;;;;;5051394;28;20033;-71
2022/02/01 05:47:55;;;;;;;11.83;2.20;;;4.60;99.90;;;;;;5079170;22;20041;-84
2022/02/01 05:50:21;;;;;;;13.10;2.40;;;4.70;99.90;;;;;;5071224;28;20023;-84
2022/02/01 05:52:48;;;;;;;15.50;2.97;;;4.70;99.90;;;;;;5071338;28;20040;-84
2022/02/01 05:55:15;;;;;;;17.80;2.87;;;4.70;99.90;;;;;;5053346;28;20096;-84
2022/02/01 05:57:41;;;;;;;12.10;2.40;;;4.70;99.90;;;;;;5071197;28;20043;-84
2022/02/01 06:00:08;;;;;;;15.63;3.10;;;4.70;99.90;;;;;;5071330;28;20472;-84
2022/02/01 06:02:39;;;;;;;13.83;2.63;;;4.70;99.90;;;;;;5071266;28;20033;-84
2022/02/01 06:05:05;;;;;;;13.50;2.60;;;4.80;99.90;;;;;;5070900;28;20025;-84
2022/02/01 06:07:31;;;;;;;17.57;3.00;;;4.70;99.90;;;;;;5071113;28;20035;-84
2022/02/01 06:09:56;;;;;;;9.67;2.13;;;4.70;99.90;;;;;;5071080;28;20029;-84
2022/02/01 06:12:22;;;;;;;15.23;3.00;;;4.70;99.90;;;;;;5071101;28;20087;-85
2022/02/01 06:14:48;;;;;;;15.53;3.03;;;4.70;99.90;;;;;;5071468;28;20115;-84
2022/02/01 06:17:14;;;;;;;13.53;2.73;;;4.80;99.90;;;;;;5075198;28;20028;-84
2022/02/01 06:19:40;;;;;;;14.83;3.33;;;4.80;99.90;;;;;;5040552;28;20054;-85
2022/02/01 06:22:06;;;;;;;15.47;3.00;;;4.80;99.90;;;;;;5075089;28;20032;-84
2022/02/01 06:24:33;;;;;;;11.60;2.63;;;4.80;99.90;;;;;;5074740;28;20056;-84
2022/02/01 06:26:59;;;;;;;14.33;2.87;;;4.80;99.90;;;;;;5074740;28;20033;-84
2022/02/01 06:29:25;;;;;;;15.00;2.70;;;4.80;99.90;;;;;;5074937;28;20044;-84
2022/02/01 06:31:51;;;;;;;10.00;2.57;;;4.80;99.90;;;;;;5075033;28;20082;-84
2022/02/01 06:34:17;;;;;;;14.40;3.40;;;4.80;99.90;;;;;;5074688;28;20025;-84
2022/02/01 06:36:42;;;;;;;19.20;2.63;;;4.80;99.90;;;;;;5057360;28;20024;-85
2022/02/01 06:39:09;;;;;;;13.37;2.70;;;4.70;99.90;;;;;;5074742;28;20107;-85
2022/02/01 06:41:38;;;;;;;18.60;3.03;;;4.80;99.90;;;;;;5056947;28;20033;-85
2022/02/01 06:44:06;;;;;;;15.45;2.75;;;4.80;99.90;;;;;;5056770;28;20040;-85
2022/02/01 06:46:32;;;;;;;15.50;2.63;;;4.80;99.90;;;;;;5074611;28;20032;-84
2022/02/01 06:48:58;;;;;;;12.83;2.87;;;4.80;99.90;;;;;;5056462;28;20033;-84
2022/02/01 06:51:27;;;;;;;15.90;2.60;;;4.90;99.90;;;;;;5056655;28;20119;-84
2022/02/01 06:53:55;;;;;;;15.30;2.77;;;4.90;99.90;;;;;;5056318;28;20373;-84
2022/02/01 06:56:28;;;;;;;14.00;2.57;;;4.90;99.90;;;;;;5074326;28;20411;-84
2022/02/01 06:58:56;;;;;;;14.73;2.63;;;4.90;99.90;;;;;;5074408;28;20047;-84
2022/02/01 07:01:22;;;;;;;21.50;2.87;;;4.80;99.90;;;;;;5074275;28;20025;-84
2022/02/01 07:03:48;;;;;;;13.97;2.80;;;4.90;99.90;;;;;;5074033;28;20400;-84
2022/02/01 07:06:14;;;;;;;9.07;2.40;;;4.90;99.90;;;;;;5074285;28;20021;-84
2022/02/01 07:08:43;;;;;;;13.73;3.40;;;4.90;99.90;;;;;;5056042;28;20455;-85
2022/02/01 07:11:09;;;;;;;14.38;2.75;;;4.80;99.90;;;;;;5056156;28;20031;-84
2022/02/01 07:13:35;;;;;;;21.43;4.60;;;4.90;99.90;;;;;;5073954;28;20393;-84
2022/02/01 07:16:01;;;;;;;14.00;3.60;;;4.80;99.90;;;;;;5074049;28;20033;-84
2022/02/01 07:18:27;;;;;;;14.50;3.13;;;4.80;99.90;;;;;;5055955;28;20029;-84
2022/02/01 07:20:53;;;;;;;17.70;5.33;;;4.90;99.90;;;;;;5074027;28;20498;-84
2022/02/01 07:23:23;;;;;;;21.33;4.57;;;4.80;99.90;;;;;;5073642;28;20538;-84
2022/02/01 07:25:49;;;;;;;13.13;4.27;;;4.90;99.90;;;;;;5073462;28;20495;-84
2022/02/01 07:28:17;;;;;;;17.43;3.30;;;4.90;99.90;;;;;;5073739;28;20481;-84
2022/02/01 07:30:44;;;;;;;16.30;3.63;;;5.00;99.90;;;;;;5073941;28;20036;-84
2022/02/01 07:33:10;;;;;;;14.13;3.80;;;5.00;99.90;;;;;;5073660;28;20078;-84
2022/02/01 07:35:37;;;;;;;16.87;4.10;;;5.00;99.90;;;;;;5055508;28;20535;-84
2022/02/01 07:38:03;;;;;;;19.37;3.63;;;4.90;99.90;;;;;;5055411;28;20074;-84
2022/02/01 07:40:30;;;;;;;15.53;3.43;;;5.00;99.90;;;;;;5073583;28;20438;-84
2022/02/01 07:42:56;;;;;;;18.23;3.50;;;5.00;99.90;;;;;;5073487;28;20036;-84
2022/02/01 07:45:26;;;;;;;13.40;3.57;;;5.00;99.90;;;;;;5073449;28;20033;-84
2022/02/01 07:47:53;;;;;;;16.77;5.07;;;5.00;99.90;;;;;;5073255;28;20074;-84
2022/02/01 07:50:19;;;;;;;14.00;3.50;;;5.00;99.90;;;;;;5055482;28;20024;-84
2022/02/01 07:52:45;;;;;;;22.43;4.87;;;5.10;99.90;;;;;;5073355;28;20024;-85
2022/02/01 07:55:11;;;;;;;14.80;3.90;;;5.00;99.90;;;;;;5055330;28;20116;-84
2022/02/01 07:57:37;;;;;;;16.87;3.90;;;5.00;99.90;;;;;;5055298;28;20123;-84
2022/02/01 08:00:05;;;;;;;18.97;4.20;;;5.00;99.90;;;;;;5055380;28;20033;-84
2022/02/01 08:02:31;;;;;;;16.80;4.00;;;5.00;99.90;;;;;;5073033;28;20488;-84
2022/02/01 08:04:57;;;;;;;16.43;4.60;;;5.00;99.90;;;;;;5054878;28;20098;-84
2022/02/01 08:07:24;;;;;;;26.63;4.60;;;5.00;99.90;;;;;;5055047;28;20400;-84
2022/02/01 08:09:54;;;;;;;14.07;4.43;;;5.10;99.90;;;;;;5072892;28;20139;-84
2022/02/01 08:17:27;;;;;;;14.50;4.95;;;5.20;99.90;;;;;;5072691;28;20032;-84
2022/02/01 08:20:02;;;;;;;23.63;4.80;;;5.20;99.90;;;;;;5072990;28;20036;-84
2022/02/01 08:22:38;;;;;;;19.37;5.47;;;5.10;99.90;;;;;;5072729;28;20044;-84
2022/02/01 08:25:05;;;;;;;24.43;5.77;;;5.10;99.90;;;;;;5072578;28;20072;-84
2022/02/01 08:27:32;;;;;;;23.47;5.97;;;5.00;99.90;;;;;;5072624;28;20397;-84
2022/02/01 08:30:05;;;;;;;22.20;6.37;;;5.10;99.90;;;;;;5072532;28;20116;-84
2022/02/01 08:32:31;;;;;;;21.87;7.90;;;5.00;99.90;;;;;;5072428;28;20027;-84
2022/02/01 08:34:57;;;;;;;21.33;8.40;;;5.00;99.90;;;;;;5054341;28;20412;-84
2022/02/01 08:37:23;;;;;;;23.53;8.00;;;5.10;99.90;;;;;;5053725;28;20064;-84
2022/02/01 08:39:49;;;;;;;26.87;8.80;;;5.00;99.90;;;;;;5072511;28;20032;-84
2022/02/01 08:42:16;;;;;;;30.90;9.43;;;5.00;99.90;;;;;;5072346;28;20063;-84
2022/02/01 08:44:43;;;;;;;23.00;8.63;;;5.00;99.90;;;;;;5071826;28;20441;-84
2022/02/01 08:47:09;;;;;;;28.93;10.07;;;5.00;99.90;;;;;;5071995;28;20060;-84
2022/02/01 08:49:35;;;;;;;29.17;10.17;;;5.00;99.90;;;;;;5072174;28;20086;-85
2022/02/01 08:52:07;;;;;;;26.33;9.13;;;5.00;99.90;;;;;;5072511;28;20025;-84
2022/02/01 08:54:36;;;;;;;26.13;9.10;;;5.00;99.90;;;;;;5072049;28;20036;-84
2022/02/01 08:59:56;;;;;;;22.40;8.60;;;5.00;99.90;;;;;;5072179;28;20403;-84
2022/02/01 09:02:24;;;;;;;24.73;9.17;;;5.00;99.90;;;;;;5054243;28;20052;-85
2022/02/01 09:04:50;;;;;;;22.47;8.57;;;5.00;99.90;;;;;;5071771;28;20021;-84
2022/02/01 09:07:16;;;;;;;23.27;9.37;;;5.00;99.90;;;;;;5071764;28;20032;-84
2022/02/01 09:09:42;;;;;;;18.67;8.17;;;4.90;99.90;;;;;;5053978;28;20028;-84
2022/02/01 09:12:09;;;;;;;24.43;8.23;;;4.90;99.90;;;;;;5071838;28;20056;-84
2022/02/01 09:14:34;;;;;;;22.03;8.17;;;5.00;99.90;;;;;;5071609;28;20031;-85
2022/02/01 09:17:01;;;;;;;33.43;11.33;;;5.00;99.90;;;;;;5071572;28;20443;-84
2022/02/01 09:19:28;;;;;;;33.77;11.00;;;5.00;99.90;;;;;;5053897;28;20519;-84
2022/02/01 09:21:54;;;;;;;30.33;12.17;;;5.00;99.90;;;;;;5053803;28;20029;-84
2022/02/01 09:24:20;;;;;;;29.13;11.20;;;5.00;99.90;;;;;;5071201;28;20096;-85
2022/02/01 09:26:46;;;;;;;27.27;10.30;;;5.00;99.90;;;;;;5053768;28;20024;-84
2022/02/01 09:29:11;;;;;;;25.63;10.77;;;5.00;99.90;;;;;;5071284;28;20404;-84
2022/02/01 09:31:37;;;;;;;24.47;12.80;;;5.00;99.90;;;;;;5053736;28;20036;-84
2022/02/01 09:34:05;;;;;;;33.67;15.90;;;5.00;99.90;;;;;;5071153;28;20111;-84
2022/02/01 09:36:31;;;;;;;31.60;15.80;;;5.10;99.90;;;;;;5053642;28;20025;-84
2022/02/01 09:38:57;;;;;;;32.13;15.90;;;5.10;99.90;;;;;;5071212;28;20035;-85
2022/02/01 09:41:24;;;;;;;32.50;14.23;;;5.10;99.90;;;;;;5071755;28;20032;-84
2022/02/01 09:43:52;;;;;;;35.80;16.67;;;5.10;99.90;;;;;;5071098;28;20451;-84
2022/02/01 09:46:18;;;;;;;34.60;16.20;;;5.10;99.90;;;;;;5071349;28;20480;-84
2022/02/01 09:48:45;;;;;;;38.80;15.77;;;5.20;99.90;;;;;;5070685;28;20457;-85
2022/02/01 09:51:10;;;;;;;37.70;17.40;;;5.20;99.90;;;;;;5053360;28;20033;-85
2022/02/01 09:53:38;;;;;;;38.70;17.00;;;5.30;99.90;;;;;;5071010;28;20396;-85
2022/02/01 09:56:04;;;;;;;39.23;18.00;;;5.20;99.90;;;;;;5071283;28;20047;-84
2022/02/01 09:58:32;;;;;;;34.80;16.37;;;5.20;99.90;;;;;;5071098;28;20545;-85
2022/02/01 10:00:59;;;;;;;38.27;18.00;;;5.30;99.90;;;;;;5053169;28;20040;-85
2022/02/01 10:03:25;;;;;;;36.23;18.40;;;5.20;99.90;;;;;;5053139;28;20033;-84
2022/02/01 10:06:06;;;;;;;36.30;18.60;;;5.30;99.90;;;;;;5071060;28;20101;-84
2022/02/01 10:08:33;;;;;;;29.97;15.60;;;5.20;99.90;;;;;;5071161;28;20451;-84
2022/02/01 10:10:59;;;;;;;31.50;16.37;;;5.20;99.90;;;;;;5071084;28;20028;-84
2022/02/01 10:13:25;;;;;;;32.20;15.70;;;5.20;99.90;;;;;;5070757;28;20545;-84
2022/02/01 10:15:59;;;;;;;33.43;16.17;;;5.30;99.90;;;;;;5070957;28;20028;-85
2022/02/01 10:18:27;;;;;;;30.57;16.30;;;5.30;99.90;;;;;;5070938;28;20033;-84
2022/02/01 10:20:53;;;;;;;29.03;14.67;;;5.30;99.90;;;;;;5071121;28;20035;-84
2022/02/01 10:23:20;;;;;;;30.93;14.30;;;5.30;99.90;;;;;;5070987;28;20404;-84
2022/02/01 10:26:10;;;;;;;28.17;13.53;;;5.40;99.90;;;;;;5071134;28;20150;-84
2022/02/01 10:28:39;;;;;;;;;;;5.40;99.90;;;;;;5071257;28;20523;-84
2022/02/01 10:37:14;;;;;;;17.80;9.27;;;5.50;99.90;;;;;;5070783;28;20035;-85
2022/02/01 10:39:40;;;;;;;15.77;8.20;;;5.50;99.90;;;;;;5071192;28;20100;-84
2022/02/01 10:42:11;;;;;;;15.40;7.70;;;5.50;99.90;;;;;;5070732;28;20028;-85
2022/02/01 10:44:54;;;;;;;13.83;8.20;;;5.50;99.90;;;;;;5052350;28;20123;-85
2022/02/01 10:47:36;;;;;;;17.03;7.63;;;5.50;99.90;;;;;;5070522;28;20416;-85
2022/02/01 10:50:06;;;;;;;10.73;6.97;;;5.40;99.90;;;;;;5070771;28;20029;-85
2022/02/01 10:52:35;;;;;;;11.23;6.80;;;5.50;99.90;;;;;;5070820;28;20056;-84
2022/02/01 10:55:02;;;;;;;13.83;6.87;;;5.60;99.90;;;;;;5070509;28;20043;-85
2022/02/01 10:57:28;;;;;;;13.37;6.53;;;5.60;99.90;;;;;;5052543;28;20457;-84
2022/02/01 10:59:55;;;;;;;13.47;7.27;;;5.60;99.90;;;;;;5070554;28;20438;-85
2022/02/01 11:02:24;;;;;;;11.10;6.60;;;5.60;99.90;;;;;;5073623;28;20036;-85
2022/02/01 11:04:53;;;;;;;17.30;6.53;;;5.70;99.90;;;;;;5074093;28;20128;-85
2022/02/01 11:07:20;;;;;;;10.25;5.65;;;5.80;99.90;;;;;;5074050;28;20032;-85
2022/02/01 11:09:46;;;;;;;11.50;6.43;;;5.70;99.90;;;;;;5056335;28;20021;-85
2022/02/01 11:12:13;;;;;;;11.30;6.60;;;5.70;99.90;;;;;;5074316;28;20395;-85
2022/02/01 11:14:42;;;;;;;12.17;7.33;;;5.70;99.90;;;;;;5055882;28;20032;-85
2022/02/01 11:17:12;;;;;;;11.30;6.50;;;5.80;99.90;;;;;;5056201;28;20040;-84
2022/02/01 11:20:07;;;;;;;11.03;6.27;;;5.80;99.90;;;;;;5073914;28;20104;-85
2022/02/01 11:22:37;;;;;;;10.43;6.40;;;5.80;99.90;;;;;;5051522;28;20033;-85
2022/02/01 11:25:19;;;;;;;11.30;6.40;;;5.90;99.90;;;;;;5073536;28;20024;-85
2022/02/01 11:27:48;;;;;;;10.43;6.03;;;5.90;99.90;;;;;;5055624;28;20052;-84
2022/02/01 11:30:14;;;;;;;10.45;6.40;;;5.90;99.90;;;;;;5055939;28;20021;-85
2022/02/01 11:32:53;;;;;;;11.17;5.80;;;6.00;99.90;;;;;;5073851;28;20091;-84
2022/02/01 11:35:23;;;;;;;10.83;6.10;;;6.00;99.90;;;;;;5073557;28;20543;-85
2022/02/01 11:37:54;;;;;;;8.40;5.57;;;6.00;99.90;;;;;;5073498;28;20039;-85
2022/02/01 11:40:22;;;;;;;9.87;5.60;;;6.10;99.90;;;;;;5055600;28;20422;-85
2022/02/01 11:43:00;;;;;;;8.60;5.80;;;6.10;99.90;;;;;;5073560;28;20396;-85
2022/02/01 11:45:32;;;;;;;7.90;4.87;;;6.10;99.90;;;;;;5055602;28;20040;-84
2022/02/01 11:48:00;;;;;;;8.13;5.50;;;6.10;99.90;;;;;;5147109;22;20004;-69
2022/02/01 11:50:27;;;;;;;7.93;5.00;;;6.10;99.90;;;;;;5053867;28;20028;-69
2022/02/01 11:53:00;;;;;;;8.60;4.90;;;6.10;99.90;;;;;;5053660;28;20725;-69
2022/02/01 11:55:31;;;;;;;8.77;4.70;;;6.10;99.90;;;;;;5053764;28;20072;-69
2022/02/01 11:58:03;;;;;;;7.87;4.87;;;6.10;99.90;;;;;;5053510;28;20040;-69
2022/02/01 12:00:38;;;;;;;7.30;4.90;;;6.10;99.90;;;;;;5053418;28;20040;-69
2022/02/01 12:03:05;;;;;;;7.57;4.97;;;6.20;99.90;;;;;;5053536;28;20041;-70
2022/02/01 12:05:37;;;;;;;7.97;4.80;;;6.10;99.90;;;;;;5053574;28;20040;-69
2022/02/01 12:08:10;;;;;;;6.63;4.67;;;6.10;99.90;;;;;;5053471;28;20044;-69
2022/02/01 12:10:43;;;;;;;7.57;4.63;;;6.20;99.90;;;;;;5053309;28;20036;-69
2022/02/01 12:13:11;;;;;;;7.33;5.00;;;6.20;99.90;;;;;;5053100;28;20104;-69
2022/02/01 12:15:41;;;;;;;6.70;4.03;;;6.20;99.90;;;;;;5035310;28;20028;-69
2022/02/01 12:18:34;;;;;;;6.38;4.15;;;6.20;99.90;;;;;;5035378;28;20033;-69
2022/02/01 12:21:25;;;;;;;6.67;4.23;;;6.30;99.90;;;;;;5052976;28;20473;-69
2022/02/01 12:23:53;;;;;;;8.07;4.53;;;6.30;99.90;;;;;;5053040;28;20029;-69
2022/02/01 12:26:28;;;;;;;7.00;4.00;;;6.30;99.90;;;;;;5053097;28;20033;-69
2022/02/01 12:28:56;;;;;;;7.50;4.50;;;6.30;99.90;;;;;;5035142;28;20481;-69
2022/02/01 12:31:25;;;;;;;6.10;3.83;;;6.30;99.90;;;;;;5053051;28;20021;-69
2022/02/01 12:33:54;;;;;;;6.33;4.10;;;6.30;99.90;;;;;;5053067;28;20469;-69
2022/02/01 12:36:27;;;;;;;7.28;4.35;;;6.30;99.90;;;;;;5052774;28;20025;-69
2022/02/01 12:39:15;;;;;;;6.70;3.77;;;6.30;99.90;;;;;;5052666;28;20056;-69
2022/02/01 12:41:54;;;;;;;5.97;3.80;;;6.40;99.90;;;;;;5052891;28;20025;-69
2022/02/01 12:46:56;;;;;;;8.53;4.07;;;6.40;99.90;;;;;;5052981;28;20124;-69
2022/02/01 12:49:40;;;;;;;6.67;4.00;;;6.40;99.90;;;;;;5052455;28;20044;-69
2022/02/01 12:52:28;;;;;;;7.07;3.50;;;6.40;99.90;;;;;;5052671;28;20031;-69
2022/02/01 12:55:08;;;;;;;6.00;3.60;;;6.50;99.90;;;;;;5034195;28;20025;-69
2022/02/01 12:57:36;;;;;;;6.40;3.90;;;6.50;99.90;;;;;;5052405;28;20485;-69
2022/02/01 13:00:11;;;;;;;6.20;3.40;;;6.50;99.90;;;;;;5052485;28;20449;-70
2022/02/01 13:02:38;;;;;;;6.47;3.90;;;6.60;99.90;;;;;;5052435;28;20025;-70
2022/02/01 13:05:09;;;;;;;5.20;3.17;;;6.60;99.90;;;;;;5051868;28;20036;-70
2022/02/01 13:21:06;;;;;;;5.77;3.20;;;6.60;99.90;;;;;;5051622;28;20112;-70
2022/02/01 13:23:49;;;;;;;6.03;3.67;;;6.70;99.90;;;;;;5051278;28;20293;-70
2022/02/01 13:26:27;;;;;;;6.67;3.33;;;6.70;99.90;;;;;;5034032;28;20033;-70
2022/02/01 13:28:58;;;;;;;6.53;4.13;;;6.70;99.90;;;;;;5051781;28;20060;-69
2022/02/01 13:31:28;;;;;;;7.37;4.47;;;6.80;99.90;;;;;;5051812;28;20032;-69
2022/02/01 13:34:00;;;;;;;5.90;3.67;;;6.80;99.90;;;;;;5033735;28;20064;-69
2022/02/01 13:36:27;;;;;;;6.83;4.10;;;6.80;99.90;;;;;;5051818;28;20029;-69
2022/02/01 13:38:55;;;;;;;6.67;3.67;;;6.80;99.90;;;;;;5051570;28;20037;-69
2022/02/01 13:41:23;;;;;;;5.07;3.60;;;6.80;99.90;;;;;;5051941;28;20032;-69
2022/02/01 13:44:01;;;;;;;6.57;3.47;;;6.90;99.90;;;;;;5033865;28;20029;-69
2022/02/01 13:46:31;;;;;;;6.20;3.90;;;6.80;99.90;;;;;;5051919;28;20036;-69
2022/02/01 13:49:10;;;;;;;5.77;3.80;;;6.80;99.90;;;;;;5051556;28;20504;-70
2022/02/01 13:51:51;;;;;;;5.47;3.45;;;6.90;99.90;;;;;;5051731;28;20482;-69
2022/02/01 13:54:18;;;;;;;5.13;3.20;;;6.90;99.90;;;;;;5051556;28;20029;-69
2022/02/01 13:56:46;;;;;;;4.63;3.23;;;6.90;99.90;;;;;;5051563;28;20037;-69
2022/02/01 13:59:26;;;;;;;6.47;3.80;;;7.00;99.90;;;;;;5051255;28;20257;-69
2022/02/01 14:02:02;;;;;;;;;;;7.00;99.90;;;;;;5052256;28;20400;-69
2022/02/01 14:04:38;;;;;;;5.27;3.40;;;7.00;99.90;;;;;;5051570;28;19952;-69
2022/02/01 14:36:08;;;;;;;18.43;9.83;;;7.40;99.90;;;;;;5052561;28;20474;-69
2022/02/01 14:46:16;;;;;;;22.43;9.77;;;7.50;99.90;;;;;;5055115;28;20103;-69
2022/02/01 14:48:42;;;;;;;26.03;10.80;;;7.60;99.90;;;;;;5054807;28;20459;-69
2022/02/01 14:51:09;;;;;;;19.37;10.20;;;7.60;99.90;;;;;;5054978;28;20103;-69
2022/02/01 14:53:36;;;;;;;22.83;11.00;;;7.60;99.90;;;;;;5036865;28;20025;-69
2022/02/01 14:56:19;;;;;;;24.47;10.70;;;7.70;99.90;;;;;;5054939;28;20438;-70
2022/02/01 15:04:47;;;;;;;24.70;11.47;;;7.70;99.90;;;;;;5036518;28;20028;-69
2022/02/01 15:14:42;;;;;;;21.38;10.35;;;7.90;99.90;;;;;;5054299;28;20033;-70
2022/02/01 15:17:14;;;;;;;26.10;9.97;;;7.90;99.90;;;;;;5054206;28;20144;-69
2022/02/01 15:19:40;;;;;;;17.90;9.30;;;7.90;99.90;;;;;;5054364;28;20109;-70
2022/02/01 15:22:06;;;;;;;23.40;10.80;;;7.90;99.90;;;;;;5054236;28;20328;-69
2022/02/01 15:24:32;;;;;;;23.67;9.37;;;7.90;99.90;;;;;;5054091;28;20032;-69
2022/02/01 15:26:58;;;;;;;20.40;9.27;;;7.90;99.90;;;;;;5054144;28;20112;-69
2022/02/01 15:29:24;;;;;;;21.77;10.03;;;7.90;99.90;;;;;;5053917;28;20104;-69
2022/02/01 15:31:50;;;;;;;22.20;9.60;;;8.00;99.90;;;;;;5054162;28;20400;-69
2022/02/01 15:34:17;;;;;;;21.57;9.10;;;8.00;99.90;;;;;;5054114;28;20033;-69
2022/02/01 15:36:43;;;;;;;22.33;8.83;;;7.90;99.90;;;;;;5054679;28;20033;-69
2022/02/01 15:54:21;;;;;;;17.53;7.90;;;8.00;99.90;;;;;;5053193;28;20036;-70
2022/02/01 15:56:26;;;;;;;16.50;7.23;;;8.10;99.90;;;;;;5053551;28;20054;-71
2022/02/01 15:58:46;;;;;;;18.57;7.00;;;8.20;99.90;;;;;;5053308;28;20448;-69